Time;durP1;ratioP1;P1;durP2;ratioP2;P2;SDS_P1;SDS_P2;PMS_P1;PMS_P2;Temp;Humidity;BMP_temperature;BMP_pressure;BME280_temperature;BME280_humidity;BME280_pressure;Samples;Min_cycle;Max_cycle;Signal;HPM_P1;HPM_P2
2023/06/22 00:00:50;;;;;;;27.20;24.83;;;15.70;99.90;;;;;;5092770;28;20439;-90
2023/06/22 00:03:17;;;;;;;34.97;31.40;;;15.90;99.90;;;;;;5075751;28;20725;-91
2023/06/22 00:05:43;;;;;;;33.55;30.67;;;15.80;99.90;;;;;;5076306;28;20788;-91
2023/06/22 00:08:08;;;;;;;28.52;26.13;;;15.70;99.90;;;;;;5075662;28;20498;-90
2023/06/22 00:10:35;;;;;;;28.63;26.10;;;15.80;99.90;;;;;;5074806;28;20430;-90
2023/06/22 00:13:01;;;;;;;32.03;29.07;;;15.70;99.90;;;;;;5075879;28;20823;-89
2023/06/22 00:15:26;;;;;;;33.28;30.33;;;15.60;99.90;;;;;;5075234;28;20501;-90
2023/06/22 00:17:52;;;;;;;28.00;25.52;;;15.60;99.90;;;;;;5075440;28;20468;-90
2023/06/22 00:20:18;;;;;;;32.75;29.48;;;15.60;99.90;;;;;;5074940;28;20408;-91
2023/06/22 00:22:47;;;;;;;43.30;38.80;;;15.60;99.90;;;;;;5075234;28;20824;-90
2023/06/22 00:25:13;;;;;;;33.97;30.98;;;15.80;99.90;;;;;;5075224;28;20408;-90
2023/06/22 00:27:39;;;;;;;34.33;31.23;;;15.50;99.90;;;;;;5091700;28;20780;-91
2023/06/22 00:30:05;;;;;;;26.63;24.33;;;15.80;99.90;;;;;;5074824;28;20513;-91
2023/06/22 00:32:31;;;;;;;31.17;28.42;;;15.50;99.90;;;;;;5091628;28;20404;-91
2023/06/22 00:34:56;;;;;;;31.47;28.57;;;15.50;99.90;;;;;;5075017;28;20402;-90
2023/06/22 00:37:25;;;;;;;24.33;22.23;;;15.50;99.90;;;;;;5076050;28;20416;-90
2023/06/22 00:39:51;;;;;;;29.33;26.73;;;15.40;99.90;;;;;;5075072;28;20479;-90
2023/06/22 00:42:17;;;;;;;30.05;27.55;;;15.40;99.90;;;;;;5074453;28;20407;-90
2023/06/22 00:44:44;;;;;;;39.53;35.87;;;15.30;99.90;;;;;;5074194;28;20404;-90
2023/06/22 00:47:13;;;;;;;46.60;42.27;;;15.40;99.90;;;;;;5074843;28;20424;-90
2023/06/22 00:49:39;;;;;;;32.88;29.90;;;15.40;99.90;;;;;;5074319;28;20851;-90
2023/06/22 00:52:09;;;;;;;31.73;28.92;;;15.30;99.90;;;;;;5074616;28;20466;-90
2023/06/22 00:54:36;;;;;;;28.20;25.80;;;15.20;99.90;;;;;;5074581;28;20400;-90
2023/06/22 00:57:02;;;;;;;24.42;22.33;;;15.50;99.90;;;;;;5074919;28;20451;-90
2023/06/22 00:59:28;;;;;;;27.33;24.92;;;15.00;99.90;;;;;;5074342;28;20400;-89
2023/06/22 01:01:54;;;;;;;29.48;26.77;;;14.90;99.90;;;;;;5073977;28;20586;-89
2023/06/22 01:04:24;;;;;;;68.70;29.67;;;14.80;99.90;;;;;;5074195;28;20392;-89
2023/06/22 01:07:00;;;;;;;31.50;25.08;;;14.90;99.90;;;;;;5073827;28;20488;-89
2023/06/22 01:09:34;;;;;;;26.65;24.55;;;14.80;99.90;;;;;;5090051;28;20795;-88
2023/06/22 01:12:07;;;;;;;26.67;24.17;;;14.90;99.90;;;;;;5073703;28;20934;-89
2023/06/22 01:14:52;;;;;;;27.58;25.17;;;14.90;99.90;;;;;;5090231;28;20419;-90
2023/06/22 01:17:19;;;;;;;26.30;23.83;;;14.70;99.90;;;;;;5074466;28;20481;-90
2023/06/22 01:19:54;;;;;;;26.90;24.03;;;14.60;99.90;;;;;;5073922;28;20445;-89
2023/06/22 01:22:25;;;;;;;25.20;23.05;;;14.90;99.90;;;;;;5073845;28;20965;-89
2023/06/22 01:25:13;;;;;;;37.37;26.30;;;14.60;99.90;;;;;;5073362;28;20392;-90
2023/06/22 01:28:04;;;;;;;62.28;36.10;;;14.60;99.90;;;;;;5073038;28;20420;-90
2023/06/22 01:30:30;;;;;;;31.03;28.33;;;14.60;99.90;;;;;;5090071;28;20413;-89
2023/06/22 01:32:57;;;;;;;32.28;29.45;;;14.60;99.90;;;;;;5073529;28;20402;-89
2023/06/22 01:35:24;;;;;;;32.83;28.02;;;14.60;99.90;;;;;;5090261;28;20389;-89
2023/06/22 01:37:50;;;;;;;37.42;34.20;;;14.60;99.90;;;;;;5089881;28;20412;-89
2023/06/22 01:40:18;;;;;;;50.80;35.67;;;14.80;99.90;;;;;;5073277;28;20388;-89
2023/06/22 01:42:44;;;;;;;31.42;28.83;;;14.70;99.90;;;;;;5073367;28;20412;-88
2023/06/22 01:45:12;;;;;;;27.20;25.03;;;14.80;99.90;;;;;;5072591;28;20492;-90
2023/06/22 01:47:39;;;;;;;36.17;28.73;;;14.90;99.90;;;;;;5090066;28;20428;-89
2023/06/22 01:50:05;;;;;;;29.75;26.92;;;14.70;99.90;;;;;;5089876;28;20453;-89
2023/06/22 01:52:33;;;;;;;125.47;35.60;;;14.60;99.90;;;;;;5090125;28;20401;-90
2023/06/22 01:54:59;;;;;;;154.82;41.70;;;14.70;99.90;;;;;;5089583;28;20443;-89
2023/06/22 01:57:26;;;;;;;63.97;32.45;;;14.50;99.90;;;;;;5090399;28;20394;-89
2023/06/22 02:00:04;;;;;;;37.80;34.03;;;14.40;99.90;;;;;;5072323;28;20417;-90
2023/06/22 02:02:42;;;;;;;59.25;38.40;;;14.40;99.90;;;;;;5072750;28;20905;-88
2023/06/22 02:05:12;;;;;;;71.20;48.50;;;14.40;99.90;;;;;;5072970;28;20407;-89
2023/06/22 02:07:44;;;;;;;40.58;37.13;;;14.40;99.90;;;;;;5072393;28;20423;-90
2023/06/22 02:10:13;;;;;;;70.60;41.00;;;14.50;99.90;;;;;;5073245;28;20407;-89
2023/06/22 02:12:41;;;;;;;40.42;36.13;;;14.50;99.90;;;;;;5072853;28;20480;-89
2023/06/22 02:15:08;;;;;;;36.78;33.17;;;14.30;99.90;;;;;;5072257;28;20450;-90
2023/06/22 02:17:34;;;;;;;56.60;36.60;;;14.30;99.90;;;;;;5072512;28;20405;-89
2023/06/22 02:20:08;;;;;;;44.00;34.75;;;14.30;99.90;;;;;;5088930;28;20557;-90
2023/06/22 02:22:34;;;;;;;66.88;35.95;;;14.50;99.90;;;;;;5073313;28;20505;-91
2023/06/22 02:25:00;;;;;;;45.53;33.17;;;14.50;99.90;;;;;;5089183;28;20404;-90
2023/06/22 02:27:25;;;;;;;78.47;33.80;;;14.40;99.90;;;;;;5072931;28;20562;-89
2023/06/22 02:29:51;;;;;;;68.20;33.23;;;14.40;99.90;;;;;;5072207;28;20423;-89
2023/06/22 02:32:17;;;;;;;32.40;29.45;;;14.40;99.90;;;;;;5089764;28;20411;-90
2023/06/22 02:34:47;;;;;;;81.78;43.47;;;14.10;99.90;;;;;;5072850;28;20719;-89
2023/06/22 02:37:14;;;;;;;41.60;35.22;;;14.10;99.90;;;;;;5072500;28;20888;-90
2023/06/22 02:39:40;;;;;;;99.53;38.33;;;14.10;99.90;;;;;;5090054;28;20408;-90
2023/06/22 02:42:06;;;;;;;42.53;37.83;;;14.10;99.90;;;;;;5072538;28;20457;-90
2023/06/22 02:44:32;;;;;;;40.77;31.60;;;14.10;99.90;;;;;;5072366;28;20407;-90
2023/06/22 02:46:58;;;;;;;98.78;38.75;;;14.30;99.90;;;;;;5072188;28;20434;-90
2023/06/22 02:49:24;;;;;;;147.23;42.05;;;14.20;99.90;;;;;;5072603;28;20756;-91
2023/06/22 02:51:49;;;;;;;105.60;35.65;;;14.20;99.90;;;;;;5072482;28;20758;-91
2023/06/22 02:54:16;;;;;;;88.90;38.42;;;14.30;99.90;;;;;;5072015;28;20510;-90
2023/06/22 02:56:43;;;;;;;44.45;34.22;;;14.10;99.90;;;;;;5072545;28;20399;-91
2023/06/22 02:59:10;;;;;;;52.85;37.17;;;14.10;99.90;;;;;;5072182;28;20892;-90
2023/06/22 03:01:39;;;;;;;59.78;43.70;;;14.10;99.90;;;;;;5072843;28;20397;-90
2023/06/22 03:04:09;;;;;;;63.25;41.45;;;14.10;99.90;;;;;;5072206;28;20396;-90
2023/06/22 03:06:35;;;;;;;41.47;35.22;;;14.00;99.90;;;;;;5072471;28;20508;-90
2023/06/22 03:09:03;;;;;;;71.68;28.77;;;14.10;99.90;;;;;;5071885;28;20487;-90
2023/06/22 03:11:30;;;;;;;47.80;32.53;;;14.10;99.90;;;;;;5072063;28;20392;-90
2023/06/22 03:13:56;;;;;;;39.65;30.98;;;14.10;99.90;;;;;;5089088;28;20900;-90
2023/06/22 03:16:22;;;;;;;38.53;32.17;;;14.00;99.90;;;;;;5071857;28;20445;-89
2023/06/22 03:18:47;;;;;;;65.35;32.83;;;14.10;99.90;;;;;;5091363;27;20905;-90
2023/06/22 03:21:15;;;;;;;36.83;33.87;;;13.90;99.90;;;;;;5092298;27;20886;-91
2023/06/22 03:23:41;;;;;;;36.00;32.70;;;14.10;99.90;;;;;;5092932;27;20419;-90
2023/06/22 03:26:06;;;;;;;39.22;35.30;;;13.90;99.90;;;;;;5109251;27;20399;-89
2023/06/22 03:28:32;;;;;;;61.05;29.30;;;14.00;99.90;;;;;;5091761;27;20418;-90
2023/06/22 03:30:58;;;;;;;36.00;32.50;;;14.00;99.90;;;;;;5091626;28;20419;-90
2023/06/22 03:33:24;;;;;;;23.80;22.05;;;13.80;99.90;;;;;;5092246;27;20402;-89
2023/06/22 03:35:53;;;;;;;27.73;25.33;;;13.80;99.90;;;;;;5092714;27;20714;-90
2023/06/22 03:38:19;;;;;;;36.22;33.10;;;13.80;99.90;;;;;;5091885;27;20431;-90
2023/06/22 03:40:45;;;;;;;42.45;29.30;;;13.80;99.90;;;;;;5109647;28;20818;-90
2023/06/22 03:43:10;;;;;;;40.60;33.10;;;13.80;99.90;;;;;;5108856;27;20406;-89
2023/06/22 03:45:37;;;;;;;49.60;33.87;;;14.00;99.90;;;;;;5092036;28;20410;-91
2023/06/22 03:48:03;;;;;;;49.88;34.85;;;13.80;99.90;;;;;;5092011;28;20450;-90
2023/06/22 03:50:29;;;;;;;53.90;40.53;;;13.90;99.90;;;;;;5108675;28;20960;-90
2023/06/22 03:52:55;;;;;;;61.75;40.00;;;14.00;99.90;;;;;;5091523;28;20402;-90
2023/06/22 03:55:21;;;;;;;84.82;56.90;;;13.90;99.90;;;;;;5090306;28;20401;-89
2023/06/22 03:57:47;;;;;;;137.80;58.30;;;14.00;99.90;;;;;;5091286;28;20894;-90
2023/06/22 04:00:15;;;;;;;51.88;41.80;;;14.30;99.90;;;;;;5091561;28;20399;-90
2023/06/22 04:02:41;;;;;;;55.33;38.67;;;14.10;99.90;;;;;;5091631;28;20914;-90
2023/06/22 04:05:09;;;;;;;87.35;47.53;;;14.30;99.90;;;;;;5090601;28;20435;-90
2023/06/22 04:07:37;;;;;;;53.40;42.78;;;14.30;99.90;;;;;;5090854;28;20419;-90
2023/06/22 04:10:04;;;;;;;62.30;43.33;;;14.30;99.90;;;;;;5091947;28;20395;-88
2023/06/22 04:12:29;;;;;;;73.85;48.60;;;14.30;99.90;;;;;;5091243;28;20471;-90
2023/06/22 04:14:55;;;;;;;78.67;44.50;;;14.40;99.90;;;;;;5092082;28;20476;-90
2023/06/22 04:17:21;;;;;;;44.63;40.45;;;14.40;99.90;;;;;;5091516;28;20882;-92
2023/06/22 04:19:46;;;;;;;66.97;47.00;;;14.40;99.90;;;;;;5108968;28;20394;-90
2023/06/22 04:22:12;;;;;;;45.73;40.67;;;14.30;99.90;;;;;;5091473;28;20399;-90
2023/06/22 04:24:38;;;;;;;45.75;41.65;;;14.40;99.90;;;;;;5091539;28;20475;-90
2023/06/22 04:27:04;;;;;;;52.90;48.47;;;14.40;99.90;;;;;;5108875;28;20907;-90
2023/06/22 04:29:30;;;;;;;42.38;38.83;;;14.40;99.90;;;;;;5089809;28;20420;-91
2023/06/22 04:32:02;;;;;;;48.63;43.97;;;14.60;99.90;;;;;;5091333;28;20839;-91
2023/06/22 04:34:28;;;;;;;72.45;48.88;;;14.50;99.90;;;;;;5090853;28;20395;-90
2023/06/22 04:36:54;;;;;;;57.53;46.70;;;14.60;99.90;;;;;;5091329;28;20874;-90
2023/06/22 04:39:20;;;;;;;60.10;47.28;;;14.70;99.90;;;;;;5108385;28;20399;-89
2023/06/22 04:41:46;;;;;;;90.20;57.17;;;14.80;99.90;;;;;;5091566;28;20489;-89
2023/06/22 04:44:13;;;;;;;82.57;54.15;;;14.80;99.90;;;;;;5094038;27;20510;-89
2023/06/22 04:46:39;;;;;;;65.67;49.70;;;15.00;99.90;;;;;;5094625;27;20882;-89
2023/06/22 04:49:11;;;;;;;68.03;51.45;;;15.10;99.90;;;;;;5110875;27;20390;-91
2023/06/22 04:51:41;;;;;;;66.20;52.50;;;15.50;99.90;;;;;;5108718;27;20414;-90
2023/06/22 04:54:08;;;;;;;45.72;41.22;;;15.40;99.90;;;;;;5111180;27;20395;-90
2023/06/22 04:56:34;;;;;;;89.60;58.80;;;15.70;99.90;;;;;;5092888;27;20407;-89
2023/06/22 04:59:01;;;;;;;63.07;52.63;;;15.60;99.90;;;;;;5094282;27;20816;-91
2023/06/22 05:01:26;;;;;;;92.60;55.75;;;15.90;99.90;;;;;;5088824;28;20424;-89
2023/06/22 05:03:55;;;;;;;134.30;55.70;;;15.70;99.90;;;;;;5072780;28;20446;-89
2023/06/22 05:06:24;;;;;;;115.45;50.83;;;16.00;99.90;;;;;;5091133;28;20402;-89
2023/06/22 05:08:57;;;;;;;78.88;53.85;;;15.80;99.90;;;;;;5090143;28;20428;-89
2023/06/22 05:11:27;;;;;;;58.00;51.47;;;15.90;99.90;;;;;;5090745;28;20411;-89
2023/06/22 05:13:53;;;;;;;65.10;55.15;;;16.00;99.90;;;;;;5088879;27;20414;-89
2023/06/22 05:16:26;;;;;;;77.13;62.63;;;16.20;99.90;;;;;;5110806;27;20445;-89
2023/06/22 05:18:53;;;;;;;56.92;51.05;;;16.30;99.90;;;;;;5093905;27;20394;-88
2023/06/22 05:21:27;;;;;;;62.00;55.20;;;16.60;99.90;;;;;;5093454;27;20409;-89
2023/06/22 05:23:53;;;;;;;55.33;49.58;;;16.40;99.90;;;;;;5110998;27;20440;-89
2023/06/22 05:26:20;;;;;;;56.92;50.85;;;16.80;99.90;;;;;;5110428;27;20401;-89
2023/06/22 05:28:46;;;;;;;54.22;48.53;;;17.00;99.90;;;;;;5111082;27;20433;-90
2023/06/22 05:31:16;;;;;;;58.45;52.42;;;16.90;99.90;;;;;;5093137;27;20481;-89
2023/06/22 05:33:43;;;;;;;55.47;49.78;;;17.00;99.90;;;;;;5093436;27;20467;-88
2023/06/22 05:36:10;;;;;;;57.53;51.65;;;17.30;99.90;;;;;;5093431;27;20391;-88
2023/06/22 05:38:36;;;;;;;66.95;59.65;;;17.50;99.90;;;;;;5092573;27;20437;-89
2023/06/22 05:41:02;;;;;;;60.23;53.90;;;17.70;99.90;;;;;;5093516;27;20402;-88
2023/06/22 05:43:28;;;;;;;59.95;53.85;;;17.90;99.90;;;;;;5109160;27;20502;-88
2023/06/22 05:45:53;;;;;;;58.33;52.35;;;17.80;99.90;;;;;;5110140;27;20394;-86
2023/06/22 05:48:19;;;;;;;60.50;54.10;;;18.20;99.90;;;;;;5109543;27;20418;-87
2023/06/22 05:50:45;;;;;;;55.10;49.58;;;18.30;99.90;;;;;;5110078;27;20397;-86
2023/06/22 05:53:10;;;;;;;56.90;51.20;;;18.40;99.90;;;;;;5092895;27;20399;-90
2023/06/22 05:55:36;;;;;;;55.47;49.92;;;18.90;99.90;;;;;;5108692;27;20472;-89
2023/06/22 05:58:03;;;;;;;59.40;53.40;;;18.60;99.90;;;;;;5110103;27;20568;-89
2023/06/22 06:00:29;;;;;;;58.65;52.85;;;19.00;99.90;;;;;;5109492;27;20398;-89
2023/06/22 06:02:54;;;;;;;61.38;55.33;;;19.00;99.90;;;;;;5093335;27;20403;-89
2023/06/22 06:05:20;;;;;;;60.57;54.47;;;19.20;99.90;;;;;;5087600;27;20416;-89
2023/06/22 06:07:46;;;;;;;58.83;53.08;;;19.40;99.90;;;;;;5072390;28;20424;-89
2023/06/22 06:10:12;;;;;;;59.40;53.63;;;19.50;99.90;;;;;;5071437;28;20404;-89
2023/06/22 06:12:38;;;;;;;53.47;48.22;;;19.70;99.90;;;;;;5072098;28;20397;-89
2023/06/22 06:15:04;;;;;;;54.23;48.97;;;19.90;99.90;;;;;;5076165;27;20424;-92
2023/06/22 06:17:30;;;;;;;54.93;49.40;;;20.00;99.90;;;;;;5092341;27;20469;-88
2023/06/22 06:19:56;;;;;;;52.95;47.92;;;20.00;99.90;;;;;;5092954;27;20669;-90
2023/06/22 06:22:23;;;;;;;54.03;49.10;;;20.30;99.90;;;;;;5092582;27;20410;-89
2023/06/22 06:24:49;;;;;;;57.77;52.17;;;20.30;99.90;;;;;;5110104;27;20427;-90
2023/06/22 06:27:18;;;;;;;54.20;49.03;;;20.30;99.90;;;;;;5092460;27;20414;-87
2023/06/22 06:29:45;;;;;;;48.97;44.47;;;20.40;99.90;;;;;;5108981;27;20922;-88
2023/06/22 06:32:11;;;;;;;47.75;43.30;;;20.30;99.90;;;;;;5110373;27;20773;-91
2023/06/22 06:34:37;;;;;;;47.75;43.42;;;20.60;99.90;;;;;;5092263;27;20399;-89
2023/06/22 06:37:03;;;;;;;48.97;44.57;;;20.60;99.90;;;;;;5109710;27;20967;-92
2023/06/22 06:39:29;;;;;;;49.70;45.13;;;20.50;99.90;;;;;;5108339;27;20399;-88
2023/06/22 06:41:54;;;;;;;48.67;44.45;;;20.70;99.90;;;;;;5092580;27;20940;-86
2023/06/22 06:44:20;;;;;;;48.30;43.80;;;20.60;99.90;;;;;;5109329;27;20394;-91
2023/06/22 06:46:45;;;;;;;50.22;45.63;;;21.00;99.90;;;;;;5109713;27;20879;-92
2023/06/22 06:49:11;;;;;;;47.70;43.40;;;20.90;99.90;;;;;;5092294;27;20401;-89
2023/06/22 06:51:37;;;;;;;46.00;41.80;;;20.80;99.90;;;;;;5108994;27;20759;-89
2023/06/22 06:54:03;;;;;;;45.50;41.27;;;20.90;99.90;;;;;;5109238;27;20395;-88
2023/06/22 06:56:30;;;;;;;44.25;40.30;;;20.80;99.90;;;;;;5091600;27;20394;-92
2023/06/22 06:58:55;;;;;;;41.65;37.95;;;21.30;99.90;;;;;;5092216;27;20406;-89
2023/06/22 07:01:21;;;;;;;43.78;39.78;;;21.10;99.90;;;;;;5109019;27;20987;-90
2023/06/22 07:03:47;;;;;;;45.08;40.97;;;21.20;99.90;;;;;;5092211;27;20692;-90
2023/06/22 07:06:13;;;;;;;46.60;42.53;;;21.30;99.90;;;;;;5091410;27;20674;-90
2023/06/22 07:08:39;;;;;;;45.83;41.63;;;21.50;99.90;;;;;;5091890;27;20530;-87
2023/06/22 07:11:05;;;;;;;41.33;37.73;;;21.40;99.90;;;;;;5092138;27;20872;-91
2023/06/22 07:13:31;;;;;;;41.67;37.90;;;21.70;99.90;;;;;;5090910;27;20460;-91
2023/06/22 07:15:57;;;;;;;38.47;35.08;;;21.60;99.90;;;;;;5108843;27;20407;-90
2023/06/22 07:18:23;;;;;;;43.20;39.23;;;21.60;99.90;;;;;;5090686;27;20459;-87
2023/06/22 07:20:48;;;;;;;43.38;39.47;;;21.70;99.90;;;;;;5091598;27;20391;-86
2023/06/22 07:23:14;;;;;;;41.40;37.60;;;21.80;99.90;;;;;;5108090;27;20451;-89
2023/06/22 07:25:40;;;;;;;42.30;38.50;;;21.90;99.90;;;;;;5091792;27;20430;-89
2023/06/22 07:28:07;;;;;;;39.78;36.28;;;21.90;99.90;;;;;;5108455;27;20434;-87
2023/06/22 07:30:33;;;;;;;36.97;33.67;;;22.10;99.90;;;;;;5107600;27;20406;-87
2023/06/22 07:33:03;;;;;;;35.23;32.17;;;22.30;99.90;;;;;;5108393;28;20404;-88
2023/06/22 07:35:32;;;;;;;38.35;34.90;;;22.30;99.90;;;;;;5091061;28;20405;-88
2023/06/22 07:37:57;;;;;;;36.27;32.90;;;22.50;99.90;;;;;;5091771;27;20438;-88
2023/06/22 07:40:23;;;;;;;34.90;31.73;;;22.70;99.90;;;;;;5107666;27;20819;-87
2023/06/22 07:42:51;;;;;;;33.77;30.87;;;22.80;99.90;;;;;;5108018;28;20394;-89
2023/06/22 07:45:17;;;;;;;32.03;29.13;;;22.90;99.90;;;;;;5108204;27;20406;-88
2023/06/22 07:47:43;;;;;;;29.75;27.02;;;23.00;99.90;;;;;;5108031;28;20417;-90
2023/06/22 07:50:09;;;;;;;32.50;29.60;;;23.10;99.90;;;;;;5091001;28;20390;-90
2023/06/22 07:52:35;;;;;;;28.55;26.05;;;23.20;99.90;;;;;;5090939;28;20415;-90
2023/06/22 07:55:02;;;;;;;24.17;21.97;;;23.30;99.90;;;;;;5108595;28;20406;-90
2023/06/22 07:57:32;;;;;;;27.25;24.85;;;23.50;99.90;;;;;;5107849;28;20409;-88
2023/06/22 07:59:58;;;;;;;27.50;24.87;;;23.60;99.90;;;;;;5108618;28;20936;-90
2023/06/22 08:02:24;;;;;;;28.05;25.38;;;23.60;99.90;;;;;;5108518;28;20834;-92
2023/06/22 08:04:50;;;;;;;25.38;22.88;;;23.90;99.90;;;;;;5091661;28;20482;-90
2023/06/22 08:07:15;;;;;;;22.67;20.60;;;23.90;99.90;;;;;;5091584;28;20419;-89
2023/06/22 08:09:46;;;;;;;22.20;20.23;;;24.00;99.90;;;;;;5090518;28;20406;-89
2023/06/22 08:12:12;;;;;;;24.13;22.02;;;24.10;99.90;;;;;;5108852;28;20482;-90
2023/06/22 08:14:38;;;;;;;21.20;19.20;;;24.30;99.90;;;;;;5090584;28;20439;-92
2023/06/22 08:17:05;;;;;;;20.50;18.52;;;24.10;99.90;;;;;;5108349;27;20805;-89
2023/06/22 08:19:30;;;;;;;22.80;20.70;;;24.20;99.90;;;;;;5111230;27;20426;-92
2023/06/22 08:21:57;;;;;;;22.60;20.50;;;24.40;99.90;;;;;;5094831;27;20447;-89
2023/06/22 08:24:23;;;;;;;24.17;21.88;;;24.40;99.90;;;;;;5112325;27;20410;-88
2023/06/22 08:26:51;;;;;;;23.90;21.70;;;24.40;99.90;;;;;;5110986;27;20836;-90
2023/06/22 08:29:17;;;;;;;22.70;20.70;;;24.40;99.90;;;;;;5095357;27;20394;-86
2023/06/22 08:31:43;;;;;;;25.33;22.98;;;24.50;99.90;;;;;;5111707;27;20975;-91
2023/06/22 08:34:08;;;;;;;26.30;23.93;;;24.70;99.90;;;;;;5112352;27;20399;-88
2023/06/22 08:36:41;;;;;;;25.15;22.90;;;24.80;99.90;;;;;;5094479;27;20485;-87
2023/06/22 08:39:08;;;;;;;26.27;23.92;;;25.00;99.90;;;;;;5094569;27;20406;-90
2023/06/22 08:41:33;;;;;;;24.17;21.95;;;25.10;99.90;;;;;;5111291;27;20485;-89
2023/06/22 08:43:59;;;;;;;23.53;21.43;;;25.10;99.90;;;;;;5111030;27;20484;-87
2023/06/22 08:46:30;;;;;;;20.10;18.20;;;25.10;99.90;;;;;;5111646;27;20391;-85
2023/06/22 08:48:57;;;;;;;20.20;18.40;;;25.20;99.90;;;;;;5111243;27;20465;-87
2023/06/22 08:51:23;;;;;;;24.27;21.98;;;25.40;99.90;;;;;;5112100;27;20453;-88
2023/06/22 08:53:49;;;;;;;23.38;21.27;;;25.40;99.90;;;;;;5110337;27;20394;-90
2023/06/22 08:56:14;;;;;;;21.37;19.37;;;25.70;99.90;;;;;;5111351;27;20470;-89
2023/06/22 08:58:40;;;;;;;14.75;13.35;;;25.80;99.90;;;;;;5111808;27;20762;-90
2023/06/22 09:01:05;;;;;;;18.83;17.13;;;25.90;99.90;;;;;;5094485;27;20399;-88
2023/06/22 09:03:32;;;;;;;17.10;15.50;;;25.90;98.30;;;;;;5111860;27;20877;-90
2023/06/22 09:05:58;;;;;;;13.45;12.15;;;25.90;99.90;;;;;;5094454;27;20406;-89
2023/06/22 09:08:24;;;;;;;13.32;12.13;;;26.20;95.70;;;;;;5112676;27;20422;-88
2023/06/22 09:10:50;;;;;;;14.90;13.50;;;26.20;96.70;;;;;;5111995;27;20401;-90
2023/06/22 09:13:15;;;;;;;11.73;10.52;;;26.20;92.20;;;;;;5094785;27;20395;-90
2023/06/22 09:15:41;;;;;;;13.23;11.93;;;26.20;94.00;;;;;;5111024;27;20413;-89
2023/06/22 09:18:09;;;;;;;18.10;16.50;;;26.30;96.20;;;;;;5111044;27;20498;-90
2023/06/22 09:20:35;;;;;;;15.77;14.48;;;26.50;99.30;;;;;;5110974;27;20407;-87
2023/06/22 09:23:01;;;;;;;15.10;13.73;;;26.60;96.00;;;;;;5110218;27;20812;-90
2023/06/22 09:25:26;;;;;;;16.77;15.13;;;26.70;95.00;;;;;;5094219;27;20406;-92
2023/06/22 09:27:52;;;;;;;16.38;14.82;;;26.40;91.00;;;;;;5093835;27;20445;-90
2023/06/22 09:30:18;;;;;;;17.03;15.53;;;26.40;94.40;;;;;;5106610;28;20417;-88
2023/06/22 09:32:44;;;;;;;15.57;14.27;;;26.20;92.80;;;;;;5090354;28;20408;-92
2023/06/22 09:35:12;;;;;;;16.20;14.63;;;26.20;93.50;;;;;;5091150;28;20408;-91
2023/06/22 09:37:38;;;;;;;16.23;14.52;;;26.20;96.80;;;;;;5090683;28;20404;-89
2023/06/22 09:40:12;;;;;;;13.68;12.40;;;26.40;96.50;;;;;;5107064;28;20491;-88
2023/06/22 09:42:38;;;;;;;12.45;11.27;;;26.70;97.30;;;;;;5108313;28;20399;-90
2023/06/22 09:45:04;;;;;;;12.97;11.73;;;27.00;91.80;;;;;;5106519;28;20396;-85
2023/06/22 09:47:30;;;;;;;12.98;11.73;;;27.20;90.80;;;;;;5090860;28;20792;-91
2023/06/22 09:49:56;;;;;;;11.88;10.77;;;27.40;85.50;;;;;;5106980;28;20404;-87
2023/06/22 09:52:22;;;;;;;10.77;9.77;;;27.50;79.70;;;;;;5107232;28;20439;-90
2023/06/22 09:54:48;;;;;;;10.15;9.23;;;27.60;78.80;;;;;;5107701;28;20415;-93
2023/06/22 09:57:14;;;;;;;10.60;9.60;;;27.80;69.60;;;;;;5089988;28;20453;-92
2023/06/22 09:59:42;;;;;;;10.30;9.40;;;27.70;61.70;;;;;;5107686;28;20408;-88
2023/06/22 10:02:08;;;;;;;10.43;9.53;;;27.60;67.30;;;;;;5106069;28;20449;-87
2023/06/22 10:04:34;;;;;;;10.25;9.35;;;27.60;74.00;;;;;;5089958;28;20761;-85
2023/06/22 10:07:01;;;;;;;10.23;9.18;;;27.80;66.50;;;;;;5106705;28;20935;-86
2023/06/22 10:09:26;;;;;;;10.02;8.90;;;28.00;66.80;;;;;;5107426;28;20401;-90
2023/06/22 10:11:52;;;;;;;8.30;7.03;;;28.10;62.70;;;;;;5089816;28;20415;-89
2023/06/22 10:14:18;;;;;;;7.28;6.57;;;28.20;64.00;;;;;;5106820;28;20507;-92
2023/06/22 10:16:44;;;;;;;7.22;6.25;;;28.50;62.20;;;;;;5107130;28;20501;-91
2023/06/22 10:19:10;;;;;;;6.87;6.17;;;28.80;57.50;;;;;;5106141;28;20859;-87
2023/06/22 10:21:35;;;;;;;8.38;7.47;;;29.00;58.50;;;;;;5106861;28;20396;-88
2023/06/22 10:24:05;;;;;;;7.43;6.22;;;29.20;55.70;;;;;;5107117;28;20491;-93
2023/06/22 10:26:34;;;;;;;7.18;6.47;;;29.30;56.10;;;;;;5107792;28;20412;-91
2023/06/22 10:29:01;;;;;;;7.40;6.70;;;29.40;53.10;;;;;;5106720;28;20424;-91
2023/06/22 10:31:27;;;;;;;7.10;6.50;;;29.60;52.60;;;;;;5106408;28;20488;-91
2023/06/22 10:33:54;;;;;;;5.73;5.17;;;29.70;53.00;;;;;;5106253;28;20486;-89
2023/06/22 10:36:20;;;;;;;6.43;5.60;;;29.80;51.20;;;;;;5106404;28;20401;-88
2023/06/22 10:38:46;;;;;;;6.63;6.00;;;29.70;50.00;;;;;;5106088;28;20408;-92
2023/06/22 10:41:12;;;;;;;7.50;6.80;;;29.60;52.40;;;;;;5105900;28;20791;-88
2023/06/22 10:43:38;;;;;;;7.32;6.63;;;30.00;52.10;;;;;;5106745;28;20400;-91
2023/06/22 10:46:03;;;;;;;7.70;7.03;;;30.20;52.00;;;;;;5088942;28;20472;-88
2023/06/22 10:48:29;;;;;;;7.82;7.13;;;30.50;51.10;;;;;;5105745;28;20424;-90
2023/06/22 10:50:55;;;;;;;6.55;5.97;;;30.70;50.70;;;;;;5088990;28;20404;-91
2023/06/22 10:53:21;;;;;;;6.13;5.53;;;31.00;51.30;;;;;;5106011;28;20422;-92
2023/06/22 10:55:47;;;;;;;9.07;7.53;;;31.30;50.30;;;;;;5108112;28;20521;-91
2023/06/22 10:58:12;;;;;;;8.80;8.00;;;31.50;46.90;;;;;;5089138;28;20479;-90
2023/06/22 11:00:38;;;;;;;6.90;6.20;;;31.70;46.90;;;;;;5089082;28;20401;-90
2023/06/22 11:03:03;;;;;;;5.68;5.18;;;31.80;46.10;;;;;;5088659;28;20996;-87
2023/06/22 11:05:29;;;;;;;5.35;4.93;;;31.80;46.90;;;;;;5106469;28;20795;-91
2023/06/22 11:07:55;;;;;;;5.50;4.90;;;31.80;46.10;;;;;;5106178;28;20427;-92
2023/06/22 11:10:20;;;;;;;6.40;5.80;;;32.00;45.60;;;;;;5105940;28;20461;-92
2023/06/22 11:12:46;;;;;;;6.50;5.90;;;32.00;44.80;;;;;;5106032;28;20877;-91
2023/06/22 11:15:11;;;;;;;7.17;6.47;;;31.80;44.10;;;;;;5105454;28;20393;-89
2023/06/22 11:17:37;;;;;;;7.97;7.18;;;31.80;46.10;;;;;;5106558;28;20738;-90
2023/06/22 11:20:10;;;;;;;8.23;7.43;;;32.00;45.50;;;;;;5104903;28;20458;-89
2023/06/22 11:22:39;;;;;;;9.90;9.00;;;32.20;46.40;;;;;;5106407;28;20410;-86
2023/06/22 11:25:05;;;;;;;9.40;8.53;;;32.00;45.60;;;;;;5106281;28;20491;-93
2023/06/22 11:27:31;;;;;;;8.67;7.97;;;31.90;46.20;;;;;;5089789;28;20518;-91
2023/06/22 11:29:57;;;;;;;8.68;7.97;;;31.70;46.80;;;;;;5108586;28;20402;-94
2023/06/22 11:32:23;;;;;;;8.20;7.50;;;31.60;46.10;;;;;;5092805;27;20493;-93
2023/06/22 11:34:48;;;;;;;8.23;7.53;;;31.50;47.10;;;;;;5093576;28;20973;-92
2023/06/22 11:37:15;;;;;;;9.50;8.70;;;31.20;48.30;;;;;;5092626;27;20451;-93
2023/06/22 11:39:41;;;;;;;8.30;7.60;;;30.90;46.90;;;;;;5093981;27;20398;-93
2023/06/22 11:42:08;;;;;;;9.23;8.43;;;30.80;49.10;;;;;;5109757;28;20409;-95
2023/06/22 11:44:33;;;;;;;8.88;8.07;;;30.80;49.50;;;;;;5093380;28;20398;-92
2023/06/22 11:47:00;;;;;;;7.18;6.57;;;30.70;49.20;;;;;;5092774;27;20406;-93
2023/06/22 11:49:26;;;;;;;6.60;6.00;;;31.00;52.00;;;;;;5093026;28;20817;-92
2023/06/22 11:51:52;;;;;;;6.63;5.78;;;31.20;51.10;;;;;;5092673;27;20405;-93
2023/06/22 11:54:18;;;;;;;5.90;5.40;;;31.50;50.30;;;;;;5109180;28;20893;-93
2023/06/22 11:56:44;;;;;;;7.28;6.65;;;31.70;50.90;;;;;;5093215;28;20390;-92
2023/06/22 11:59:10;;;;;;;7.15;6.53;;;31.80;48.80;;;;;;5092557;28;20577;-93
2023/06/22 12:01:35;;;;;;;6.03;5.53;;;31.50;47.40;;;;;;5093043;28;20387;-93
2023/06/22 12:04:01;;;;;;;5.28;4.78;;;31.20;48.80;;;;;;5092193;28;20456;-94
2023/06/22 12:06:27;;;;;;;6.50;5.00;;;31.00;48.10;;;;;;5092752;28;20418;-94
2023/06/22 12:08:53;;;;;;;5.50;4.13;;;30.80;49.60;;;;;;5092348;28;20446;-93
2023/06/22 12:11:18;;;;;;;4.70;3.50;;;30.70;50.10;;;;;;5092798;28;20804;-94
2023/06/22 12:13:44;;;;;;;4.40;3.77;;;30.60;50.00;;;;;;5093115;28;20399;-93
2023/06/22 12:16:10;;;;;;;4.27;3.70;;;30.60;49.80;;;;;;5091929;28;20390;-92
2023/06/22 12:18:35;;;;;;;3.55;3.22;;;30.50;50.20;;;;;;5092904;28;20395;-93
2023/06/22 12:21:01;;;;;;;4.20;3.80;;;30.20;50.20;;;;;;5092159;28;20399;-93
2023/06/22 12:23:27;;;;;;;4.80;4.20;;;30.20;51.70;;;;;;5092970;28;20390;-93
2023/06/22 12:25:52;;;;;;;5.38;4.70;;;30.10;51.60;;;;;;5092560;28;20937;-92
2023/06/22 12:28:18;;;;;;;4.82;4.18;;;30.10;51.30;;;;;;5109190;28;20450;-93